Terminal Aerodrome Forecast
Issued by NWS

Home | Current Version | Previous Version | Text Only | Print | Product List | Glossary On
Versions: 1 2 3 4 5 6 7 8 9 10 11 12 13
000
FTUS45 KRIW 221700
TAFBPI
TAF
KBPI 221720Z 2218/2318 20010KT P6SM VCTS SCT030 BKN050CB
     FM221900 20011G20KT 6SM -TSRA SCT050CB BKN060
     FM222300 30011G20KT P6SM -SHRA BKN050
     FM230600 36010KT P6SM VCSH SCT025 BKN050=

USA.gov is the U.S. government's official web portal to all federal, state and local government web resources and services.